Latest Coastal Weather Observations for Tewantin

IDQ60701

Issued at 8:21 pm EST Friday 27 May 2016 (issued every 10 minutes, with the page automatically refreshed every 10 minutes)

About coastal observations | Map of coastal stations | Coastal observations for QLD | Marine services | Other Formats
Station Details ID: 040908 Name: TEWANTIN RSL PARK Lat: -26.39 Lon: 153.04 Height: 6.4 m
Data from the previous 72 hours. | See also: Recent months at Tewantin
Date/Time
EST
Temp

°C
Wind Pressure Rain
since 9am
mm
Weather Cloud Vis
km
Sea
Height
m
Swell
Dir
 
Speed
knots
Gust
knots
hPa Trend Height
m
Period
s
Dir
27/08:00pm 21.6 WSW 5 7 1010.5 - 0.0 - - - - - - -
27/07:30pm 21.6 WSW 3 7 1009.9 - 0.0 - - - - - - -
27/07:00pm 22.5 WSW 5 8 1009.7 - 0.0 - - - - - - -
27/06:30pm 23.1 WSW 5 10 1009.1 - 0.0 - - - - - - -
27/06:00pm 22.6 W 2 5 1008.6 - 0.0 - - - - - - -
27/05:30pm 23.6 WSW 4 10 1008.4 - 0.0 - - - - - - -
27/05:00pm 24.4 WSW 4 10 1007.8 - 0.0 - - - - - - -
27/04:30pm 25.2 W 4 10 1007.7 - 0.0 - - - - - - -
27/04:00pm 26.3 WSW 6 13 1007.4 - 0.0 - - - - - - -
27/03:30pm 26.4 W 5 10 1006.8 - 0.0 - - - - - - -
27/03:00pm 26.5 WSW 4 7 1006.3 - 0.0 - - - - - - -
27/02:30pm 26.2 WSW 7 13 1006.8 - 0.0 - - - - - - -
27/02:00pm 26.5 WSW 6 10 1006.7 - 0.0 - - - - - - -
27/01:30pm 26.8 WSW 4 9 1006.7 - 0.0 - - - - - - -
27/01:00pm 26.6 W 5 11 1006.7 - 0.0 - - - - - - -
27/12:30pm 28.4 W 6 11 1006.8 - 0.0 - - - - - - -
27/12:00pm 27.3 W 7 12 1007.3 - 0.0 - - - - - - -
27/11:30am 27.0 W 6 12 1007.9 - 0.0 - - - - - - -
27/11:00am 27.4 WNW 5 8 1008.6 - 0.0 - - - - - - -
27/10:30am 26.4 WNW 6 12 1008.8 - 0.0 - - - - - - -
27/10:00am 25.6 WNW 6 11 1009.1 - 0.0 - - - - - - -
27/09:30am 24.4 N 3 8 1009.5 - 0.0 - - - - - - -
27/09:00am 22.6 CALM 0 0 1009.6 - 0.0 - - - - - - -
27/08:30am 20.8 NE 2 4 1009.6 - 0.0 - - - - - - -
27/08:00am 20.8 CALM 0 0 1009.2 - 0.0 - - - - - - -
27/07:30am 19.5 SSW 1 5 1009.4 - 0.0 - - - - - - -
27/07:00am 19.2 N 3 4 1008.6 - 0.0 - - - - - - -
27/06:30am 19.5 SW 1 5 1008.6 - 0.0 - - - - - - -
27/06:00am 19.2 N 3 4 1007.8 - 0.0 - - - - - - -
27/05:30am 19.6 NNW 3 3 1007.8 - 0.0 - - - - - - -
27/05:00am 19.7 NNW 3 5 1008.0 - 0.0 - - - - - - -
27/04:30am 20.1 NNW 3 5 1007.8 - 0.0 - - - - - - -
27/04:00am 20.3 NW 3 5 1007.9 - 0.0 - - - - - - -
27/03:30am 20.5 WNW 3 8 1008.3 - 0.0 - - - - - - -
27/03:00am 20.2 NNW 5 7 1007.3 - 0.0 - - - - - - -
27/02:30am 20.4 NNW 6 9 1007.7 - 0.0 - - - - - - -
27/02:00am 20.5 NNW 8 11 1007.7 - 0.0 - - - - - - -
27/01:30am 20.7 NNW 8 13 1008.0 - 0.0 - - - - - - -
27/01:00am 20.7 NNW 8 16 1008.0 - 0.0 - - - - - - -
27/12:30am 20.6 NNW 8 14 1008.5 - 0.0 - - - - - - -
27/12:00am 20.6 NW 7 11 1009.0 - 0.0 - - - - - - -
 
Date/Time
EST
Temp

°C
Wind Pressure Rain
since 9am
mm
Weather Cloud Vis
km
Sea
Height
m
Swell
Dir
 
Speed
knots
Gust
knots
hPa Trend Height
m
Period
s
Dir
26/11:30pm 20.7 NW 8 14 1009.3 - 0.0 - - - - - - -
26/11:00pm 20.8 NW 8 13 1009.5 - 0.0 - - - - - - -
26/10:30pm 20.7 NNW 8 13 1009.5 - 0.0 - - - - - - -
26/10:00pm 20.8 NNW 6 9 1009.6 - 0.0 - - - - - - -
26/09:30pm 20.9 NNW 7 11 1009.6 - 0.0 - - - - - - -
26/09:00pm 21.1 NNW 6 9 1009.9 - 0.0 - - - - - - -
26/08:30pm 21.1 NNW 5 9 1010.3 - 0.0 - - - - - - -
26/08:00pm 21.4 NNW 6 9 1010.5 - 0.0 - - - - - - -
26/07:30pm 21.5 NNW 6 9 1010.4 - 0.0 - - - - - - -
26/07:00pm 22.1 N 8 13 1010.2 - 0.0 - - - - - - -
26/06:30pm 22.4 N 10 15 1010.2 - 0.0 - - - - - - -
26/06:00pm 22.7 N 11 15 1009.8 - 0.0 - - - - - - -
26/05:30pm 23.0 N 11 15 1009.4 - 0.0 - - - - - - -
26/05:00pm 23.6 N 10 15 1009.1 - 0.0 - - - - - - -
26/04:30pm 24.5 N 9 14 1009.1 - 0.0 - - - - - - -
26/04:00pm 25.3 N 9 14 1009.0 - 0.0 - - - - - - -
26/03:30pm 26.4 N 7 10 1009.2 - 0.0 - - - - - - -
26/03:00pm 26.5 N 9 13 1009.6 - 0.0 - - - - - - -
26/02:30pm 26.7 N 10 14 1009.6 - 0.0 - - - - - - -
26/02:00pm 27.5 NW 8 14 1010.0 - 0.0 - - - - - - -
26/01:30pm 27.0 NNW 9 15 1010.4 - 0.0 - - - - - - -
26/01:00pm 26.6 NNW 9 13 1011.2 - 0.0 - - - - - - -
26/12:30pm 26.2 NNW 9 15 1012.0 - 0.0 - - - - - - -
26/12:00pm 25.3 NNW 9 15 1012.6 - 0.0 - - - - - - -
26/11:30am 25.4 NNW 8 12 1013.4 - 0.0 - - - - - - -
26/11:00am 24.2 NNW 7 12 1014.3 - 0.0 - - - - - - -
26/10:30am 22.3 NNW 7 11 1015.0 - 0.0 - - - - - - -
26/10:00am 20.8 N 7 9 1015.7 - 0.0 - - - - - - -
26/09:30am 19.6 N 6 9 1016.1 - 0.0 - - - - - - -
26/09:00am 19.1 NNW 5 7 1016.4 - 0.0 - - - - - - -
26/08:30am 17.4 NW 5 8 1016.3 - 0.0 - - - - - - -
26/08:00am 16.0 WNW 6 9 1016.4 - 0.0 - - - - - - -
26/07:30am 13.8 NW 4 6 1016.3 - 0.0 - - - - - - -
26/07:00am 11.2 WNW 2 6 1016.3 - 0.0 - - - - - - -
26/06:30am 10.6 NW 4 5 1016.1 - 0.0 - - - - - - -
26/06:00am 10.3 NW 1 4 1015.9 - 0.0 - - - - - - -
26/05:30am 11.0 NNW 2 4 1015.8 - 0.0 - - - - - - -
26/05:00am 11.0 CALM 0 4 1015.9 - 0.0 - - - - - - -
26/04:30am 10.7 CALM 0 0 1016.0 - 0.0 - - - - - - -
26/04:00am 10.6 CALM 0 0 1016.1 - 0.0 - - - - - - -
26/03:30am 10.9 CALM 0 0 1016.1 - 0.0 - - - - - - -
26/03:00am 10.6 CALM 0 0 1016.3 - 0.0 - - - - - - -
26/02:30am 10.4 CALM 0 0 1016.4 - 0.0 - - - - - - -
26/02:00am 11.0 CALM 0 0 1016.6 - 0.0 - - - - - - -
26/01:30am 11.0 CALM 0 0 1016.8 - 0.0 - - - - - - -
26/01:00am 11.1 CALM 0 0 1017.0 - 0.0 - - - - - - -
26/12:30am 11.1 CALM 0 0 1017.0 - 0.0 - - - - - - -
26/12:00am 11.2 CALM 0 0 1017.2 - 0.0 - - - - - - -
 
Date/Time
EST
Temp

°C
Wind Pressure Rain
since 9am
mm
Weather Cloud Vis
km
Sea
Height
m
Swell
Dir
 
Speed
knots
Gust
knots
hPa Trend Height
m
Period
s
Dir
25/11:30pm 11.0 CALM 0 0 1017.5 - 0.0 - - - - - - -
25/11:00pm 11.2 CALM 0 0 1017.8 - 0.0 - - - - - - -
25/10:30pm 11.7 CALM 0 0 1017.9 - 0.0 - - - - - - -
25/10:00pm 12.0 CALM 0 0 1017.9 - 0.0 - - - - - - -
25/09:30pm 12.4 CALM 0 0 1017.7 - 0.0 - - - - - - -
25/09:00pm 12.6 CALM 0 0 1017.7 - 0.0 - - - - - - -
25/08:30pm 13.1 CALM 0 0 1017.6 - 0.0 - - - - - - -
25/08:00pm 13.5 CALM 0 0 1017.6 - 0.0 - - - - - - -
25/07:30pm 14.0 CALM 0 0 1017.5 - 0.0 - - - - - - -
25/07:00pm 14.8 CALM 0 4 1017.2 - 0.0 - - - - - - -
25/06:30pm 15.8 CALM 0 2 1016.8 - 0.0 - - - - - - -
25/06:00pm 16.7 SSW 4 5 1016.3 - 0.0 - - - - - - -
25/05:30pm 18.1 CALM 0 0 1016.3 - 0.0 - - - - - - -
25/05:00pm 19.2 CALM 0 0 1016.0 - 0.0 - - - - - - -
25/04:30pm 20.2 ESE 4 5 1015.7 - 0.0 - - - - - - -
25/04:00pm 20.8 E 5 6 1015.7 - 0.0 - - - - - - -
25/03:30pm 21.3 SE 5 7 1015.6 - 0.0 - - - - - - -
25/03:00pm 21.7 SE 5 7 1015.6 - 0.0 - - - - - - -
25/02:30pm 22.1 SE 5 8 1015.6 - 0.0 - - - - - - -
25/02:00pm 22.4 SE 5 7 1015.6 - 0.0 - - - - - - -
25/01:30pm 22.8 SE 5 7 1015.9 - 0.0 - - - - - - -
25/01:00pm 22.5 ESE 5 8 1016.4 - 0.0 - - - - - - -
25/12:30pm 22.5 ESE 6 10 1016.8 - 0.0 - - - - - - -
25/12:00pm 23.0 SE 5 9 1017.4 - 0.0 - - - - - - -
25/11:30am 22.8 SSE 3 6 1017.7 - 0.0 - - - - - - -
25/11:00am 21.8 SE 4 7 1018.0 - 0.0 - - - - - - -
25/10:30am 21.6 ESE 4 6 1018.3 - 0.0 - - - - - - -
25/10:00am 20.7 SSW 3 5 1018.3 - 0.0 - - - - - - -
25/09:30am 20.0 CALM 0 4 1018.2 - 0.0 - - - - - - -
25/09:00am 19.3 CALM 0 3 1018.2 - 0.0 - - - - - - -
25/08:30am 17.4 CALM 0 0 1017.9 - 0.0 - - - - - - -
25/08:00am 15.3 SW 3 5 1017.6 - 0.0 - - - - - - -
25/07:30am 13.3 CALM 0 2 1017.5 - 0.0 - - - - - - -
25/07:00am 10.9 CALM 0 4 1017.2 - 0.0 - - - - - - -
25/06:30am 10.2 NNE 3 4 1017.2 - 0.0 - - - - - - -
25/06:00am 10.9 CALM 0 4 1017.3 - 0.0 - - - - - - -
25/05:30am 10.9 NNW 1 3 1017.0 - 0.0 - - - - - - -
25/05:00am 11.5 NW 1 3 1016.7 - 0.0 - - - - - - -
25/04:30am 12.0 CALM 0 0 1016.6 - 0.0 - - - - - - -
25/04:00am 12.5 SSW 1 4 1016.5 - 0.0 - - - - - - -
25/03:30am 12.8 SW 2 4 1016.9 - 0.0 - - - - - - -
25/03:00am 13.5 WSW 1 3 1016.8 - 0.0 - - - - - - -
25/02:30am 13.5 CALM 0 0 1016.8 - 0.0 - - - - - - -
25/02:00am 14.9 WNW 1 4 1016.9 - 0.0 - - - - - - -
25/01:30am 14.7 WSW 1 4 1017.1 - 0.0 - - - - - - -
25/01:00am 14.8 W 3 5 1017.4 - 0.0 - - - - - - -
25/12:30am 15.3 CALM 0 3 1017.3 - 0.0 - - - - - - -
25/12:00am 15.5 CALM 0 2 1017.5 - 0.0 - - - - - - -
 
Date/Time
EST
Temp

°C
Wind Pressure Rain
since 9am
mm
Weather Cloud Vis
km
Sea
Height
m
Swell
Dir
 
Speed
knots
Gust
knots
hPa Trend Height
m
Period
s
Dir
24/11:30pm 15.1 CALM 0 2 1017.7 - 0.0 - - - - - - -
24/11:00pm 15.5 CALM 0 0 1017.9 - 0.0 - - - - - - -
24/10:30pm 15.8 CALM 0 0 1018.0 - 0.0 - - - - - - -
24/10:00pm 16.1 CALM 0 0 1018.2 - 0.0 - - - - - - -
24/09:30pm 16.5 CALM 0 0 1018.1 - 0.0 - - - - - - -
24/09:00pm 16.8 CALM 0 0 1018.1 - 0.0 - - - - - - -
24/08:30pm 17.3 CALM 0 0 1017.8 - 0.0 - - - - - - -

Other Formats:

Comma delimited format used in spreadsheet applications
http://www.bom.gov.au/fwo/IDQ60701/IDQ60701.94570.axf

JavaScript Object Notation format (JSON) in row-major order
http://www.bom.gov.au/fwo/IDQ60701/IDQ60701.94570.json